Time;durP1;ratioP1;P1;durP2;ratioP2;P2;SDS_P1;SDS_P2;PMS_P1;PMS_P2;Temp;Humidity;BMP_temperature;BMP_pressure;BME280_temperature;BME280_humidity;BME280_pressure;Samples;Min_cycle;Max_cycle;Signal;HPM_P1;HPM_P2
2023/04/23 00:01:05;;;;;;;40.15;26.08;;;11.50;99.90;;;;;;4997088;28;20029;-81
2023/04/23 00:03:34;;;;;;;36.42;23.73;;;11.50;99.90;;;;;;4995057;28;20146;-80
2023/04/23 00:06:04;;;;;;;47.03;29.67;;;11.50;99.90;;;;;;4996155;28;20041;-81
2023/04/23 00:08:30;;;;;;;45.03;27.15;;;11.40;99.90;;;;;;4995277;28;20034;-81
2023/04/23 00:10:56;;;;;;;27.83;18.58;;;11.40;99.90;;;;;;4999978;28;20172;-81
2023/04/23 00:13:21;;;;;;;39.08;24.48;;;11.30;99.90;;;;;;4979866;28;20037;-81
2023/04/23 00:15:47;;;;;;;36.85;23.70;;;11.40;99.90;;;;;;4976750;28;20046;-81
2023/04/23 00:18:15;;;;;;;31.85;19.30;;;11.40;99.90;;;;;;4995717;28;20590;-81
2023/04/23 00:20:41;;;;;;;42.58;27.88;;;11.20;99.90;;;;;;4976559;28;20034;-82
2023/04/23 00:23:07;;;;;;;31.65;21.27;;;11.30;99.90;;;;;;5012384;28;20040;-82
2023/04/23 00:25:32;;;;;;;43.67;28.90;;;11.40;99.90;;;;;;5010710;28;20049;-81
2023/04/23 00:27:58;;;;;;;35.22;23.80;;;11.40;99.90;;;;;;4987725;28;20132;-81
2023/04/23 00:30:23;;;;;;;42.08;28.88;;;11.40;99.90;;;;;;5011639;28;20034;-81
2023/04/23 00:32:49;;;;;;;35.22;22.38;;;11.30;99.90;;;;;;4974843;28;20034;-81
2023/04/23 00:35:14;;;;;;;30.25;20.08;;;11.30;99.90;;;;;;4995967;28;20037;-82
2023/04/23 00:37:40;;;;;;;24.55;16.35;;;11.30;99.90;;;;;;4995587;28;20531;-81
2023/04/23 00:40:06;;;;;;;35.47;24.38;;;11.40;99.90;;;;;;4994998;28;20765;-81
2023/04/23 00:42:32;;;;;;;35.30;22.60;;;11.50;99.90;;;;;;4972332;28;20501;-82
2023/04/23 00:44:58;;;;;;;31.50;21.08;;;11.40;99.90;;;;;;5007797;28;20041;-81
2023/04/23 00:47:24;;;;;;;45.88;26.55;;;11.30;99.90;;;;;;5006764;28;20060;-82
2023/04/23 00:49:50;;;;;;;36.95;24.40;;;11.20;99.90;;;;;;5009383;28;20063;-80
2023/04/23 00:52:16;;;;;;;34.38;21.85;;;11.10;99.90;;;;;;5010254;28;20030;-81
2023/04/23 00:54:41;;;;;;;33.15;21.77;;;11.10;99.90;;;;;;5008219;28;20042;-81
2023/04/23 00:57:07;;;;;;;34.17;21.90;;;11.20;99.90;;;;;;4987253;28;20031;-81
2023/04/23 00:59:33;;;;;;;43.92;27.27;;;11.20;99.90;;;;;;4981475;28;20029;-81
2023/04/23 01:01:58;;;;;;;35.67;22.98;;;11.10;99.90;;;;;;5009581;28;20030;-82
2023/04/23 01:04:25;;;;;;;38.83;24.95;;;11.10;99.90;;;;;;4991900;28;20429;-82
2023/04/23 01:06:50;;;;;;;33.47;21.85;;;11.10;99.90;;;;;;4979159;28;20526;-81
2023/04/23 01:09:17;;;;;;;24.73;16.83;;;10.90;99.90;;;;;;4992904;28;20053;-81
2023/04/23 01:11:42;;;;;;;27.58;19.63;;;11.00;99.90;;;;;;4995127;28;20580;-81
2023/04/23 01:14:09;;;;;;;27.85;18.92;;;11.00;99.90;;;;;;4992077;28;20030;-81
2023/04/23 01:16:36;;;;;;;37.22;23.55;;;11.00;99.90;;;;;;4982176;28;20022;-81
2023/04/23 01:19:01;;;;;;;24.88;17.23;;;10.90;99.90;;;;;;4994655;28;20516;-81
2023/04/23 01:21:28;;;;;;;21.38;14.52;;;10.90;99.90;;;;;;4992751;28;20022;-81
2023/04/23 01:23:54;;;;;;;26.55;18.20;;;11.00;99.90;;;;;;4995008;28;20037;-81
2023/04/23 01:26:20;;;;;;;24.38;16.33;;;11.10;99.90;;;;;;5008027;28;20033;-81
2023/04/23 01:28:47;;;;;;;22.23;15.68;;;10.90;99.90;;;;;;4975809;28;20512;-81
2023/04/23 01:31:13;;;;;;;28.88;21.45;;;11.10;99.90;;;;;;4992502;28;20022;-81
2023/04/23 01:33:39;;;;;;;25.40;17.23;;;11.20;99.90;;;;;;4981060;28;20406;-81
2023/04/23 01:36:05;;;;;;;32.83;21.92;;;11.00;99.90;;;;;;4985809;28;20481;-81
2023/04/23 01:38:31;;;;;;;29.40;19.80;;;11.10;99.90;;;;;;4995241;28;20125;-81
2023/04/23 01:40:56;;;;;;;27.15;18.95;;;10.90;99.90;;;;;;4991870;28;20096;-81
2023/04/23 01:43:22;;;;;;;32.15;18.00;;;10.90;99.90;;;;;;4988614;28;20061;-82
2023/04/23 01:45:47;;;;;;;24.00;16.08;;;10.80;99.90;;;;;;4992436;28;20037;-81
2023/04/23 01:48:13;;;;;;;27.63;18.63;;;10.70;99.90;;;;;;5010712;28;20519;-82
2023/04/23 01:50:39;;;;;;;30.83;20.70;;;10.70;99.90;;;;;;5011543;28;20591;-82
2023/04/23 01:53:04;;;;;;;31.25;19.30;;;10.70;99.90;;;;;;5005827;28;20036;-81
2023/04/23 01:55:30;;;;;;;22.48;16.20;;;10.60;99.90;;;;;;4976934;28;20091;-81
2023/04/23 01:57:56;;;;;;;20.15;14.70;;;10.60;99.90;;;;;;4991631;28;20038;-81
2023/04/23 02:00:22;;;;;;;29.55;20.02;;;10.60;99.90;;;;;;4993839;28;20018;-82
2023/04/23 02:02:47;;;;;;;21.70;15.02;;;10.80;99.90;;;;;;5011788;28;20036;-80
2023/04/23 02:05:19;;;;;;;27.05;17.33;;;10.60;99.90;;;;;;4995154;28;20038;-81
2023/04/23 02:07:46;;;;;;;36.30;23.08;;;10.40;99.90;;;;;;4989347;28;20042;-81
2023/04/23 02:10:11;;;;;;;31.60;22.27;;;10.20;99.90;;;;;;5006789;28;20109;-81
2023/04/23 02:12:46;;;;;;;33.05;22.35;;;10.10;99.90;;;;;;5060748;28;20890;-80
2023/04/23 02:15:12;;;;;;;25.02;18.02;;;10.00;99.90;;;;;;5059005;28;20075;-80
2023/04/23 02:17:38;;;;;;;26.38;17.23;;;10.00;99.90;;;;;;5041625;28;20033;-81
2023/04/23 02:20:05;;;;;;;33.85;22.90;;;10.00;99.90;;;;;;5042768;28;20078;-80
2023/04/23 02:22:31;;;;;;;31.30;21.88;;;9.90;99.90;;;;;;5041294;28;20029;-81
2023/04/23 02:24:57;;;;;;;29.70;20.55;;;9.80;99.90;;;;;;5039735;28;20327;-80
2023/04/23 02:27:23;;;;;;;40.35;25.42;;;9.80;99.90;;;;;;5038252;28;20091;-80
2023/04/23 02:29:48;;;;;;;38.13;25.27;;;9.70;99.90;;;;;;5040522;28;20025;-81
2023/04/23 02:32:14;;;;;;;38.40;26.08;;;9.70;99.90;;;;;;5058598;28;20496;-80
2023/04/23 02:34:39;;;;;;;28.77;18.83;;;9.60;99.90;;;;;;5057882;28;20048;-79
2023/04/23 02:37:05;;;;;;;32.20;19.83;;;9.60;99.90;;;;;;5035989;28;20030;-80
2023/04/23 02:39:31;;;;;;;28.65;20.00;;;9.70;99.90;;;;;;5055412;28;20037;-80
2023/04/23 02:41:57;;;;;;;25.85;17.92;;;9.80;99.90;;;;;;5041200;28;20427;-80
2023/04/23 02:44:23;;;;;;;27.15;17.58;;;9.70;99.90;;;;;;5038643;28;20090;-80
2023/04/23 02:46:50;;;;;;;27.90;18.70;;;9.70;99.90;;;;;;5041928;28;20033;-80
2023/04/23 02:49:16;;;;;;;42.63;25.25;;;9.60;99.90;;;;;;5058229;28;20091;-81
2023/04/23 02:51:41;;;;;;;27.98;19.30;;;9.50;99.90;;;;;;5042125;28;20048;-79
2023/04/23 02:54:07;;;;;;;25.55;17.92;;;9.50;99.90;;;;;;5040706;28;20025;-80
2023/04/23 02:56:33;;;;;;;31.30;19.98;;;9.40;99.90;;;;;;5050068;28;20049;-80
2023/04/23 02:58:58;;;;;;;35.13;23.17;;;9.30;99.90;;;;;;5054869;28;20061;-80
2023/04/23 03:01:24;;;;;;;40.38;25.02;;;9.30;99.90;;;;;;5040829;28;20496;-80
2023/04/23 03:03:49;;;;;;;40.17;25.38;;;9.20;99.90;;;;;;5040753;28;20065;-79
2023/04/23 03:06:15;;;;;;;31.45;20.80;;;9.00;99.90;;;;;;5039525;28;20087;-79
2023/04/23 03:08:40;;;;;;;23.08;14.77;;;9.10;99.90;;;;;;5039159;28;20039;-79
2023/04/23 03:11:06;;;;;;;37.05;23.33;;;9.30;99.90;;;;;;5034370;28;20484;-79
2023/04/23 03:13:31;;;;;;;26.42;18.40;;;9.30;99.90;;;;;;5050854;28;20033;-81
2023/04/23 03:15:57;;;;;;;34.45;22.38;;;9.30;99.90;;;;;;5053960;28;20629;-80
2023/04/23 03:18:23;;;;;;;34.40;21.63;;;9.20;99.90;;;;;;5025602;28;20069;-79
2023/04/23 03:20:48;;;;;;;31.48;20.40;;;9.30;99.90;;;;;;5042629;28;20040;-80
2023/04/23 03:23:14;;;;;;;25.23;16.42;;;9.50;99.90;;;;;;5016054;28;20037;-80
2023/04/23 03:25:39;;;;;;;26.92;16.90;;;9.50;99.90;;;;;;5045200;28;20037;-81
2023/04/23 03:28:05;;;;;;;25.60;16.20;;;9.50;99.90;;;;;;5027211;28;20120;-80
2023/04/23 03:30:31;;;;;;;29.00;19.73;;;9.50;99.90;;;;;;5042516;28;20067;-80
2023/04/23 03:32:56;;;;;;;32.72;21.40;;;9.60;99.90;;;;;;5027193;28;20064;-80
2023/04/23 03:35:25;;;;;;;23.45;16.73;;;9.40;99.90;;;;;;5027129;28;20029;-80
2023/04/23 03:37:51;;;;;;;22.75;16.30;;;9.60;99.90;;;;;;5024396;28;20032;-80
2023/04/23 03:40:16;;;;;;;27.48;18.52;;;9.60;99.90;;;;;;5008661;28;20384;-80
2023/04/23 03:42:42;;;;;;;35.28;22.80;;;9.60;99.90;;;;;;5028374;28;20021;-80
2023/04/23 03:45:08;;;;;;;30.58;20.50;;;9.50;99.90;;;;;;5043479;28;20112;-80
2023/04/23 03:47:34;;;;;;;29.58;19.65;;;9.40;99.90;;;;;;5023066;28;20056;-81
2023/04/23 03:49:59;;;;;;;31.33;19.58;;;9.60;99.90;;;;;;5027195;28;20029;-81
2023/04/23 03:52:25;;;;;;;26.48;16.75;;;9.60;99.90;;;;;;5027043;28;20025;-79
2023/04/23 03:54:50;;;;;;;29.10;18.50;;;9.50;99.90;;;;;;5043359;28;20528;-80
2023/04/23 03:57:16;;;;;;;30.50;20.23;;;9.70;99.90;;;;;;5009355;28;20029;-82
2023/04/23 03:59:41;;;;;;;29.75;19.02;;;9.70;99.90;;;;;;5040685;28;20043;-80
2023/04/23 04:02:07;;;;;;;24.02;16.23;;;9.60;99.90;;;;;;5028089;28;20090;-81
2023/04/23 04:04:32;;;;;;;24.50;16.80;;;9.70;99.90;;;;;;5043234;28;20808;-81
2023/04/23 04:07:01;;;;;;;25.92;18.05;;;9.80;99.90;;;;;;5042599;28;20037;-82
2023/04/23 04:09:27;;;;;;;24.73;14.23;;;9.80;99.90;;;;;;5023409;28;20068;-81
2023/04/23 04:11:53;;;;;;;26.30;16.98;;;9.90;99.90;;;;;;5025622;28;20045;-81
2023/04/23 04:14:18;;;;;;;23.88;17.00;;;9.80;99.90;;;;;;5022326;28;20365;-81
2023/04/23 04:16:44;;;;;;;18.92;13.55;;;9.80;99.90;;;;;;5025202;28;20045;-81
2023/04/23 04:19:10;;;;;;;27.85;19.02;;;9.80;99.90;;;;;;5043848;28;20052;-81
2023/04/23 04:21:36;;;;;;;19.15;13.75;;;9.80;99.90;;;;;;5041321;28;20041;-81
2023/04/23 04:24:03;;;;;;;26.63;17.55;;;9.80;99.90;;;;;;5010186;28;20049;-81
2023/04/23 04:26:31;;;;;;;21.23;14.60;;;9.70;99.90;;;;;;5006194;28;20033;-82
2023/04/23 04:28:57;;;;;;;25.65;15.65;;;9.80;99.90;;;;;;5042903;28;20043;-81
2023/04/23 04:31:22;;;;;;;21.50;15.43;;;9.90;99.90;;;;;;5042572;28;20025;-81
2023/04/23 04:33:48;;;;;;;20.98;15.00;;;9.80;99.90;;;;;;5043129;28;20086;-81
2023/04/23 04:36:14;;;;;;;21.52;16.00;;;9.80;99.90;;;;;;5026258;28;20409;-80
2023/04/23 04:38:40;;;;;;;24.88;16.80;;;9.80;99.90;;;;;;5026802;28;20056;-82
2023/04/23 04:41:06;;;;;;;25.33;16.33;;;9.70;99.90;;;;;;5025635;28;20102;-81
2023/04/23 04:43:33;;;;;;;22.23;15.10;;;9.70;99.90;;;;;;5037131;28;20487;-81
2023/04/23 04:45:59;;;;;;;21.63;15.45;;;9.70;99.90;;;;;;5025986;28;20401;-82
2023/04/23 04:48:24;;;;;;;17.88;13.32;;;9.70;99.90;;;;;;5026322;28;20033;-81
2023/04/23 04:50:50;;;;;;;22.67;15.80;;;9.80;99.90;;;;;;5043210;28;20562;-81
2023/04/23 04:53:16;;;;;;;22.10;14.82;;;9.70;99.90;;;;;;5026406;28;20029;-81
2023/04/23 04:55:41;;;;;;;22.25;15.95;;;9.70;99.90;;;;;;5010565;28;20607;-81
2023/04/23 04:58:07;;;;;;;23.88;16.33;;;9.70;99.90;;;;;;5043828;28;20471;-81
2023/04/23 05:00:33;;;;;;;21.70;14.27;;;9.70;99.90;;;;;;5027043;28;20131;-81
2023/04/23 05:02:58;;;;;;;25.65;18.55;;;9.50;99.90;;;;;;5015565;28;20042;-81
2023/04/23 05:05:24;;;;;;;22.33;15.32;;;9.60;99.90;;;;;;5004317;28;20342;-82
2023/04/23 05:07:50;;;;;;;25.48;16.58;;;9.60;99.90;;;;;;5037661;28;20429;-81
2023/04/23 05:10:16;;;;;;;26.55;16.58;;;9.70;99.90;;;;;;5025753;28;20060;-81
2023/04/23 05:12:42;;;;;;;24.45;17.70;;;9.60;99.90;;;;;;5026084;28;20221;-82
2023/04/23 05:15:08;;;;;;;22.00;15.00;;;9.70;99.90;;;;;;5022280;28;20028;-81
2023/04/23 05:17:34;;;;;;;21.70;14.30;;;9.70;99.90;;;;;;5035851;28;20083;-82
2023/04/23 05:19:59;;;;;;;24.98;16.85;;;9.80;99.90;;;;;;5026307;28;20025;-82
2023/04/23 05:22:26;;;;;;;22.08;14.77;;;9.90;99.90;;;;;;5024352;28;20434;-81
2023/04/23 05:24:51;;;;;;;21.13;15.35;;;9.90;99.90;;;;;;5039586;28;20030;-81
2023/04/23 05:27:17;;;;;;;19.88;13.50;;;10.00;99.90;;;;;;5024443;28;20051;-81
2023/04/23 05:29:42;;;;;;;20.35;14.95;;;10.10;99.90;;;;;;5039881;28;20061;-80
2023/04/23 05:32:08;;;;;;;17.27;13.77;;;10.20;99.90;;;;;;5007063;28;20051;-82
2023/04/23 05:34:34;;;;;;;17.73;12.90;;;10.30;99.90;;;;;;5022460;28;20065;-81
2023/04/23 05:37:00;;;;;;;18.20;13.55;;;10.40;99.90;;;;;;5008046;28;20476;-81
2023/04/23 05:39:25;;;;;;;17.50;12.40;;;10.50;99.90;;;;;;5041113;28;20029;-81
2023/04/23 05:41:51;;;;;;;16.55;12.23;;;10.60;99.90;;;;;;5043162;28;20395;-81
2023/04/23 05:44:17;;;;;;;17.52;13.05;;;10.70;99.90;;;;;;5024677;28;20761;-80
2023/04/23 05:46:43;;;;;;;19.50;13.68;;;10.80;99.90;;;;;;5021393;28;20064;-80
2023/04/23 05:49:08;;;;;;;18.67;12.43;;;10.90;99.90;;;;;;5024609;28;20375;-80
2023/04/23 05:51:34;;;;;;;16.48;11.82;;;11.00;99.90;;;;;;5025833;28;20044;-80
2023/04/23 05:53:59;;;;;;;17.50;12.88;;;11.10;99.90;;;;;;5026644;28;20174;-80
2023/04/23 05:56:25;;;;;;;15.80;11.93;;;11.20;99.90;;;;;;5024425;28;20060;-80
2023/04/23 05:58:50;;;;;;;15.65;11.23;;;11.20;99.90;;;;;;5037656;28;20040;-80
2023/04/23 06:01:16;;;;;;;12.82;9.93;;;11.20;99.90;;;;;;5024367;28;20116;-80
2023/04/23 06:03:44;;;;;;;17.05;11.82;;;11.30;99.90;;;;;;5003195;28;20063;-80
2023/04/23 06:06:11;;;;;;;17.55;12.73;;;11.30;99.90;;;;;;5024848;28;20454;-80
2023/04/23 06:08:37;;;;;;;15.93;12.73;;;11.40;99.90;;;;;;5024388;28;20033;-81
2023/04/23 06:11:03;;;;;;;15.40;12.15;;;11.40;99.90;;;;;;5025320;28;20416;-79
2023/04/23 06:13:29;;;;;;;15.77;11.77;;;11.50;99.90;;;;;;5024603;28;20033;-80
2023/04/23 06:15:56;;;;;;;15.15;10.85;;;11.50;99.90;;;;;;5024526;28;20032;-80
2023/04/23 06:18:21;;;;;;;12.95;10.35;;;11.50;99.90;;;;;;5019151;28;20034;-80
2023/04/23 06:20:47;;;;;;;13.23;9.90;;;11.60;99.90;;;;;;5024693;28;20322;-80
2023/04/23 06:23:13;;;;;;;15.57;11.02;;;11.60;99.90;;;;;;5040313;28;20041;-80
2023/04/23 06:25:39;;;;;;;17.38;11.55;;;11.60;99.90;;;;;;5024990;28;20037;-80
2023/04/23 06:28:05;;;;;;;14.75;11.23;;;11.70;99.90;;;;;;5024048;28;20044;-81
2023/04/23 06:30:30;;;;;;;13.73;10.30;;;11.70;99.90;;;;;;5022454;28;20030;-81
2023/04/23 06:32:56;;;;;;;12.73;9.98;;;11.80;99.90;;;;;;5023595;28;20060;-80
2023/04/23 06:35:21;;;;;;;20.85;11.32;;;12.00;99.90;;;;;;5018560;28;20538;-81
2023/04/23 06:37:47;;;;;;;14.18;10.48;;;12.00;99.90;;;;;;5024440;28;20029;-81
2023/04/23 06:40:13;;;;;;;13.27;9.32;;;12.10;99.90;;;;;;5040924;28;20021;-80
2023/04/23 06:42:39;;;;;;;13.93;10.85;;;12.20;99.90;;;;;;5024734;28;20373;-81
2023/04/23 06:45:05;;;;;;;12.82;9.73;;;12.30;99.90;;;;;;5008924;28;20036;-80
2023/04/23 06:47:30;;;;;;;13.77;10.60;;;12.40;99.90;;;;;;5039247;28;20088;-80
2023/04/23 06:49:58;;;;;;;12.95;10.00;;;12.40;99.90;;;;;;5041767;28;20685;-80
2023/04/23 06:52:24;;;;;;;12.52;9.40;;;12.50;99.90;;;;;;5021652;28;20037;-79
2023/04/23 06:54:50;;;;;;;11.45;9.07;;;12.70;99.90;;;;;;5022898;28;20507;-78
2023/04/23 06:57:16;;;;;;;11.48;8.68;;;12.80;99.90;;;;;;5024743;28;20094;-78
2023/04/23 06:59:41;;;;;;;10.75;8.10;;;12.80;99.90;;;;;;5011138;28;20481;-79
2023/04/23 07:02:07;;;;;;;9.38;7.47;;;13.00;99.90;;;;;;5010495;28;20035;-78
2023/04/23 07:04:33;;;;;;;10.68;7.68;;;12.90;99.90;;;;;;5025253;28;20029;-78
2023/04/23 07:06:59;;;;;;;11.38;8.80;;;13.00;99.90;;;;;;5010544;28;20043;-78
2023/04/23 07:09:26;;;;;;;13.23;8.82;;;13.00;99.90;;;;;;5008294;28;20744;-78
2023/04/23 07:11:51;;;;;;;10.88;7.15;;;13.20;99.90;;;;;;5045256;28;20549;-78
2023/04/23 07:14:17;;;;;;;10.45;6.90;;;13.40;99.90;;;;;;5038211;28;20063;-78
2023/04/23 07:16:42;;;;;;;9.73;7.38;;;13.60;99.90;;;;;;5011685;28;20032;-78
2023/04/23 07:19:08;;;;;;;10.57;7.90;;;13.60;99.90;;;;;;5007663;28;20040;-77
2023/04/23 07:21:34;;;;;;;12.25;7.90;;;13.60;99.90;;;;;;5026478;28;20063;-77
2023/04/23 07:24:05;;;;;;;9.75;7.22;;;13.80;99.90;;;;;;5026376;28;20056;-76
2023/04/23 07:26:34;;;;;;;9.43;7.68;;;13.80;99.90;;;;;;5042329;28;20571;-77
2023/04/23 07:29:00;;;;;;;10.20;8.65;;;14.00;99.90;;;;;;5024309;28;20033;-78
2023/04/23 07:31:26;;;;;;;12.15;8.35;;;14.00;99.90;;;;;;5026171;28;20040;-77
2023/04/23 07:33:51;;;;;;;10.45;6.85;;;14.20;99.90;;;;;;5009025;28;20033;-77
2023/04/23 07:36:17;;;;;;;8.55;7.10;;;14.50;99.90;;;;;;5026231;28;20098;-78
2023/04/23 07:38:43;;;;;;;9.82;7.45;;;14.60;99.90;;;;;;5042340;28;20627;-77
2023/04/23 07:41:09;;;;;;;8.48;6.53;;;14.70;99.90;;;;;;5009030;28;20033;-77
2023/04/23 07:43:34;;;;;;;7.07;5.68;;;14.80;99.90;;;;;;5023036;28;20041;-77
2023/04/23 07:46:00;;;;;;;9.63;6.55;;;14.90;99.90;;;;;;5027606;28;20052;-77
2023/04/23 07:48:26;;;;;;;9.07;6.28;;;15.10;99.90;;;;;;5026728;28;20025;-77
2023/04/23 07:50:51;;;;;;;5.28;3.17;;;15.50;99.90;;;;;;5024796;28;20539;-77
2023/04/23 07:53:17;;;;;;;7.57;3.80;;;15.50;99.90;;;;;;5022789;28;20025;-78
2023/04/23 07:55:42;;;;;;;7.90;4.53;;;15.60;99.90;;;;;;5027657;28;20106;-77
2023/04/23 07:58:08;;;;;;;10.15;6.00;;;15.60;99.90;;;;;;5008505;28;20368;-77
2023/04/23 08:00:34;;;;;;;6.32;5.30;;;15.60;99.90;;;;;;5040906;28;20049;-77
2023/04/23 08:03:00;;;;;;;6.07;4.60;;;15.90;99.90;;;;;;5037235;28;20025;-77
2023/04/23 08:05:25;;;;;;;6.57;5.40;;;16.20;99.90;;;;;;5043726;28;20033;-77
2023/04/23 08:07:51;;;;;;;8.48;4.82;;;16.20;99.90;;;;;;5010209;28;20032;-77
2023/04/23 08:10:16;;;;;;;8.48;5.05;;;16.50;99.90;;;;;;5026419;28;20055;-77
2023/04/23 08:12:42;;;;;;;7.82;4.75;;;16.80;99.90;;;;;;5009412;28;20041;-77
2023/04/23 08:15:09;;;;;;;6.00;4.20;;;16.70;99.90;;;;;;5009201;28;20051;-77
2023/04/23 08:17:35;;;;;;;5.75;4.10;;;16.80;99.90;;;;;;5026783;28;20033;-77
2023/04/23 08:20:02;;;;;;;10.05;5.90;;;16.90;99.90;;;;;;5025689;28;20029;-76
2023/04/23 08:22:28;;;;;;;7.00;3.78;;;17.10;99.90;;;;;;5042389;28;20431;-76
2023/04/23 08:24:53;;;;;;;5.68;4.22;;;17.10;99.90;;;;;;5040877;28;20035;-76
2023/04/23 08:27:19;;;;;;;7.95;4.05;;;17.30;99.90;;;;;;5008534;28;20029;-76
2023/04/23 08:29:45;;;;;;;9.45;4.03;;;17.50;99.90;;;;;;5028097;28;20485;-76
2023/04/23 08:32:10;;;;;;;7.20;3.67;;;17.50;99.90;;;;;;5006460;28;20128;-75
2023/04/23 08:34:36;;;;;;;4.50;3.92;;;17.70;99.90;;;;;;5006381;28;20033;-76
2023/04/23 08:37:02;;;;;;;9.77;4.32;;;17.90;99.90;;;;;;5003330;28;20485;-76
2023/04/23 08:39:29;;;;;;;5.25;3.70;;;18.20;99.90;;;;;;5004428;28;20041;-76
2023/04/23 08:41:55;;;;;;;4.93;3.55;;;18.10;99.90;;;;;;5009780;28;20029;-76
2023/04/23 08:44:24;;;;;;;9.13;3.70;;;18.30;99.90;;;;;;5024070;28;20036;-77
2023/04/23 08:46:50;;;;;;;8.35;4.32;;;18.30;99.90;;;;;;5036288;28;20060;-76
2023/04/23 08:49:17;;;;;;;7.55;3.33;;;18.40;99.90;;;;;;5009833;28;20136;-76
2023/04/23 08:51:53;;;;;;;6.82;3.28;;;18.50;99.90;;;;;;5008083;28;20045;-76
2023/04/23 08:54:24;;;;;;;5.90;2.85;;;18.70;99.90;;;;;;5008524;28;20473;-76
2023/04/23 08:56:50;;;;;;;7.07;3.13;;;19.00;99.90;;;;;;5005732;28;20516;-76
2023/04/23 08:59:17;;;;;;;4.10;3.33;;;19.00;99.90;;;;;;5010430;28;20112;-75
2023/04/23 09:01:42;;;;;;;3.80;3.10;;;19.10;99.90;;;;;;5005984;28;20396;-77
2023/04/23 09:04:08;;;;;;;3.78;2.97;;;19.30;99.90;;;;;;5010687;28;20033;-76
2023/04/23 09:06:35;;;;;;;3.75;2.58;;;19.50;99.90;;;;;;5024883;28;20033;-76
2023/04/23 09:09:00;;;;;;;5.60;2.33;;;19.70;99.90;;;;;;5009986;28;20060;-76
2023/04/23 09:11:26;;;;;;;5.85;2.08;;;19.70;99.90;;;;;;5023607;28;20164;-76
2023/04/23 09:13:52;;;;;;;5.18;3.08;;;20.00;99.90;;;;;;5026033;28;20033;-76
2023/04/23 09:16:17;;;;;;;6.30;2.95;;;20.10;99.90;;;;;;5006958;28;20032;-77
2023/04/23 09:18:43;;;;;;;4.45;1.80;;;20.30;99.90;;;;;;5008101;28;20040;-76
2023/04/23 09:21:09;;;;;;;6.70;2.90;;;20.20;99.90;;;;;;5026233;28;20025;-75
2023/04/23 09:23:38;;;;;;;6.80;3.10;;;20.20;99.90;;;;;;5025996;28;20055;-76
2023/04/23 09:26:05;;;;;;;5.70;2.95;;;20.20;99.90;;;;;;5025573;28;20039;-76
2023/04/23 09:28:35;;;;;;;8.70;2.70;;;20.30;99.90;;;;;;5024089;28;20092;-76
2023/04/23 09:31:00;;;;;;;6.10;3.63;;;20.50;99.90;;;;;;5039352;28;20119;-76
2023/04/23 09:33:26;;;;;;;7.35;2.90;;;20.70;99.90;;;;;;5023624;28;20067;-76
2023/04/23 09:35:51;;;;;;;10.48;3.60;;;20.40;99.90;;;;;;5025698;28;20064;-76
2023/04/23 09:38:18;;;;;;;5.15;3.17;;;20.40;99.90;;;;;;5024154;28;20034;-76
2023/04/23 09:40:44;;;;;;;6.72;2.63;;;20.30;99.90;;;;;;5037707;28;20029;-75
2023/04/23 09:43:09;;;;;;;5.40;3.15;;;20.30;99.90;;;;;;5026181;28;20036;-76
2023/04/23 09:45:35;;;;;;;5.05;2.78;;;20.20;99.90;;;;;;5023989;28;20036;-76
2023/04/23 09:48:01;;;;;;;8.23;3.03;;;20.00;99.90;;;;;;5008712;28;20460;-76
2023/04/23 09:50:39;;;;;;;4.80;2.85;;;20.00;99.90;;;;;;5004171;28;20088;-76
2023/04/23 09:53:06;;;;;;;5.65;2.60;;;20.20;99.90;;;;;;5024997;28;20116;-76
2023/04/23 09:55:40;;;;;;;7.07;3.47;;;20.20;99.90;;;;;;5037256;28;20049;-76
2023/04/23 09:58:10;;;;;;;3.03;2.33;;;20.40;99.90;;;;;;5025866;28;20025;-76
2023/04/23 10:00:36;;;;;;;2.67;2.20;;;20.40;99.90;;;;;;5039214;28;20475;-76
2023/04/23 10:03:02;;;;;;;8.63;2.08;;;20.30;99.90;;;;;;5024238;28;20025;-75
2023/04/23 10:05:28;;;;;;;4.15;2.80;;;20.10;99.90;;;;;;5038451;28;20037;-76
2023/04/23 10:07:56;;;;;;;3.33;2.40;;;20.10;99.90;;;;;;5022917;28;20059;-75
2023/04/23 10:10:22;;;;;;;3.85;2.03;;;20.10;99.90;;;;;;5039362;28;20040;-76
2023/04/23 10:12:48;;;;;;;5.20;1.95;;;20.10;99.90;;;;;;5038969;28;20412;-77
2023/04/23 10:15:13;;;;;;;4.28;2.03;;;20.30;99.90;;;;;;5024382;28;20029;-76
2023/04/23 10:17:39;;;;;;;3.00;2.05;;;20.10;99.90;;;;;;5024997;28;20036;-76
2023/04/23 10:20:06;;;;;;;4.68;1.95;;;20.00;99.90;;;;;;5023614;28;20382;-76
2023/04/23 10:22:32;;;;;;;6.10;2.42;;;20.30;99.90;;;;;;5039701;28;20033;-76
2023/04/23 10:24:59;;;;;;;3.30;1.92;;;20.60;99.90;;;;;;5006459;28;20124;-76
2023/04/23 10:27:29;;;;;;;4.10;2.25;;;20.80;99.90;;;;;;5021948;28;20108;-76
2023/04/23 10:29:56;;;;;;;3.13;2.40;;;20.70;99.90;;;;;;5040612;28;20369;-76
2023/04/23 10:32:21;;;;;;;4.25;1.98;;;20.80;99.90;;;;;;5041865;28;20432;-76
2023/04/23 10:34:47;;;;;;;8.48;2.42;;;20.50;99.90;;;;;;5042238;28;20029;-76
2023/04/23 10:37:14;;;;;;;2.55;1.90;;;20.60;99.90;;;;;;5039435;28;20832;-76
2023/04/23 10:39:39;;;;;;;7.43;1.52;;;20.90;99.90;;;;;;5007172;28;20387;-76
2023/04/23 10:42:05;;;;;;;3.95;1.85;;;20.60;99.90;;;;;;5010042;28;20043;-76
2023/04/23 10:44:37;;;;;;;5.38;1.60;;;20.70;99.90;;;;;;5040450;28;20025;-76
2023/04/23 10:47:03;;;;;;;2.88;1.95;;;20.40;99.90;;;;;;5044453;28;20036;-75
2023/04/23 10:49:30;;;;;;;2.65;1.67;;;20.50;99.90;;;;;;5009743;28;20041;-76
2023/04/23 10:52:03;;;;;;;2.53;2.15;;;20.90;99.90;;;;;;5010458;28;20487;-76
2023/04/23 10:54:30;;;;;;;2.17;1.60;;;21.30;99.90;;;;;;5028171;28;20408;-76
2023/04/23 10:57:03;;;;;;;4.22;2.17;;;21.30;99.90;;;;;;5044306;28;20037;-76
2023/04/23 10:59:29;;;;;;;3.30;1.75;;;21.20;99.90;;;;;;5043304;28;20033;-76
2023/04/23 11:01:59;;;;;;;2.40;1.63;;;21.40;99.90;;;;;;5024335;28;20614;-75
2023/04/23 11:04:27;;;;;;;4.88;1.90;;;21.20;99.90;;;;;;5027591;28;20035;-75
2023/04/23 11:06:54;;;;;;;4.43;1.70;;;21.10;99.90;;;;;;5028368;28;20029;-75
2023/04/23 11:09:32;;;;;;;2.08;1.30;;;20.90;99.90;;;;;;5029266;28;20021;-77
2023/04/23 11:11:58;;;;;;;5.20;1.73;;;21.30;99.90;;;;;;5042605;28;20132;-76
2023/04/23 11:14:48;;;;;;;3.20;1.92;;;21.30;99.90;;;;;;5011109;28;20031;-76
2023/04/23 11:17:16;;;;;;;3.72;1.90;;;21.40;99.90;;;;;;5027623;28;20025;-76
2023/04/23 11:20:02;;;;;;;2.67;1.58;;;21.20;99.90;;;;;;5029018;28;20044;-75
2023/04/23 11:22:33;;;;;;;5.57;1.60;;;20.80;99.90;;;;;;5042575;28;20531;-76
2023/04/23 11:24:59;;;;;;;2.13;1.27;;;20.80;99.90;;;;;;5009827;28;20037;-76
2023/04/23 11:27:24;;;;;;;2.15;1.80;;;20.60;99.90;;;;;;5023330;28;20039;-76
2023/04/23 11:29:50;;;;;;;3.13;1.50;;;20.50;99.90;;;;;;5038116;28;20143;-76
2023/04/23 11:32:16;;;;;;;5.15;1.50;;;20.80;99.90;;;;;;5009272;28;20667;-77
2023/04/23 11:34:43;;;;;;;3.20;1.40;;;20.70;99.90;;;;;;5044023;28;20037;-77
2023/04/23 11:37:14;;;;;;;2.80;1.15;;;20.50;99.90;;;;;;5025412;28;20061;-77
2023/04/23 11:39:40;;;;;;;3.45;1.15;;;20.50;99.90;;;;;;5027750;28;20037;-77
2023/04/23 11:42:15;;;;;;;2.42;1.50;;;20.50;99.90;;;;;;5028015;28;20021;-76
2023/04/23 11:44:41;;;;;;;4.97;2.00;;;20.30;99.90;;;;;;5027008;28;20102;-77
2023/04/23 11:47:09;;;;;;;3.50;1.40;;;20.30;99.90;;;;;;5041232;28;20287;-77
2023/04/23 11:49:37;;;;;;;4.65;1.50;;;20.20;99.90;;;;;;5040420;28;20583;-76
2023/04/23 11:52:02;;;;;;;4.72;1.80;;;19.90;99.90;;;;;;5022885;28;20033;-77
2023/04/23 11:54:28;;;;;;;2.42;1.23;;;19.80;99.90;;;;;;4675925;28;10001220;-76
2023/04/23 11:56:54;;;;;;;1.77;1.17;;;19.80;99.90;;;;;;4687322;28;10000231;-76
2023/04/23 11:59:20;;;;;;;2.42;1.17;;;19.90;99.90;;;;;;5024187;28;20033;-77
2023/04/23 12:01:50;;;;;;;1.75;1.10;;;20.00;99.90;;;;;;5020510;28;20480;-77
2023/04/23 12:04:21;;;;;;;3.45;1.20;;;20.10;99.90;;;;;;5038007;28;20033;-76
2023/04/23 12:06:47;;;;;;;2.78;1.23;;;20.10;99.90;;;;;;5024239;28;20040;-77
2023/04/23 12:09:13;;;;;;;2.63;1.25;;;20.00;99.90;;;;;;5022739;28;20516;-77
2023/04/23 12:11:42;;;;;;;6.15;1.30;;;20.20;99.90;;;;;;5025186;28;20045;-77
2023/04/23 12:14:08;;;;;;;1.55;1.05;;;20.40;99.90;;;;;;5039038;28;20043;-77
2023/04/23 12:16:37;;;;;;;3.33;1.20;;;20.80;99.90;;;;;;5004587;28;20092;-77
2023/04/23 12:19:04;;;;;;;2.15;1.23;;;21.10;99.90;;;;;;5039435;28;20059;-77
2023/04/23 12:21:30;;;;;;;3.83;1.45;;;21.30;99.90;;;;;;5038636;28;20480;-77
2023/04/23 12:23:57;;;;;;;1.88;0.90;;;21.70;99.90;;;;;;5038956;28;20025;-77
2023/04/23 12:26:23;;;;;;;2.00;0.90;;;21.70;99.90;;;;;;5005906;28;20508;-77
2023/04/23 12:28:49;;;;;;;3.13;0.80;;;21.80;99.90;;;;;;5022633;28;20024;-77
2023/04/23 12:31:22;;;;;;;1.55;0.82;;;21.90;97.90;;;;;;5022295;28;20106;-77
2023/04/23 12:33:56;;;;;;;4.97;1.10;;;21.80;98.00;;;;;;5038286;28;20029;-77